Allouez, Wisconsin
Current Conditions -  °F | °C
As of 6:53 PM on Saturday 20 Dec 2014 (Local Time) from KGRB Reporting Station
Haze Haze  
Wind Chill: -1°   Ceiling: 3500
Heat Index: -1°   Visibility: 5mi
Dew Point: -3°   Wind: 0mph
Humidity: 85%   Direction: NA
Pressure: 30.24"   Gusts: NA
Location:  44.48°N, 88.02°W
Report Text: KGRB 210053Z 00000KT 5SM BR OVC035 M01/M03 A3024 RMK AO2 SLP251 T10111033
Loading
Personal Weather Stations






























Interactive Weather Map New forecast layout! Learn more

10-Day Weather Forecast

Advertisements
Track Severe Weather on mobile